createdAt,value
2019-05-12T00:04:33.240Z,36.82
2019-05-12T00:24:32.584Z,41.17
2019-05-12T00:44:41.891Z,46.43
2019-05-12T01:04:51.242Z,25.99
2019-05-12T01:25:00.731Z,31.25
2019-05-12T01:45:10.115Z,32.19
2019-05-12T02:05:19.591Z,33.94
2019-05-12T02:25:29.096Z,24.48
2019-05-12T02:45:38.362Z,23.31
2019-05-12T03:05:47.683Z,42.82
2019-05-12T03:25:57.057Z,25.36
2019-05-12T03:46:06.518Z,31.57
2019-05-12T04:06:15.893Z,30.10
2019-05-12T04:26:25.615Z,25.35
2019-05-12T04:46:34.828Z,21.39
2019-05-12T05:06:44.880Z,20.16
2019-05-12T05:26:53.759Z,18.77
2019-05-12T05:47:00.405Z,14.62
2019-05-12T06:07:09.771Z,12.19
2019-05-12T06:27:21.291Z,13.78
2019-05-12T06:47:20.444Z,9.43
2019-05-12T07:07:33.403Z,11.68
2019-05-12T07:27:39.744Z,9.75
2019-05-12T07:47:48.102Z,8.79
2019-05-12T08:08:00.540Z,8.17
2019-05-12T08:28:14.685Z,8.11
2019-05-12T08:48:21.849Z,8.61
2019-05-12T09:08:16.909Z,10.26
2019-05-12T09:28:26.369Z,7.63
2019-05-12T09:48:39.156Z,6.85
2019-05-12T10:08:49.344Z,5.04
2019-05-12T10:28:52.232Z,4.66
2019-05-12T10:48:50.243Z,4.83
2019-05-12T11:09:05.550Z,6.28
2019-05-12T11:29:03.769Z,5.99
2019-05-12T11:49:13.840Z,4.61
2019-05-12T12:09:20.999Z,6.43
2019-05-12T12:29:30.716Z,5.06
2019-05-12T12:49:44.181Z,5.56
2019-05-12T13:09:47.759Z,4.98
2019-05-12T13:29:58.179Z,4.30
2019-05-12T13:49:57.624Z,4.62
2019-05-12T14:10:07.772Z,5.26
2019-05-12T14:30:10.232Z,5.06
2019-05-12T14:50:16.332Z,6.30
2019-05-12T15:10:25.798Z,5.20
2019-05-12T15:30:35.833Z,6.93
2019-05-12T15:50:36.847Z,5.60
2019-05-12T16:10:36.706Z,5.22
2019-05-12T16:30:47.355Z,11.98
2019-05-12T16:51:04.191Z,11.13
2019-05-12T17:11:23.124Z,16.71
2019-05-12T17:31:05.257Z,16.73
2019-05-12T17:51:14.004Z,14.47
2019-05-12T18:11:24.270Z,12.08
2019-05-12T18:31:25.406Z,13.55
2019-05-12T18:51:34.302Z,11.65
2019-05-12T19:11:46.676Z,11.37
2019-05-12T19:31:52.146Z,11.70
2019-05-12T19:51:54.287Z,13.04
2019-05-12T20:12:06.180Z,29.97
2019-05-12T20:32:10.053Z,35.42
2019-05-12T20:52:19.733Z,26.74
2019-05-12T21:12:29.148Z,21.46
2019-05-12T21:32:40.905Z,16.92
2019-05-12T21:52:40.285Z,16.95
2019-05-12T22:12:49.849Z,16.78
2019-05-12T22:33:04.623Z,17.95
2019-05-12T22:53:08.314Z,14.84
2019-05-12T23:13:17.613Z,14.61
2019-05-12T23:33:36.288Z,13.99
2019-05-12T23:53:30.623Z,13.42
